createdAt,value
2023-04-08T00:34:38.839Z,89.64
2023-04-08T00:34:44.385Z,89.64
2023-04-08T00:34:54.891Z,89.64
2023-04-08T00:35:05.418Z,89.64
2023-04-08T00:35:15.957Z,89.85
2023-04-08T00:35:26.410Z,90.06
2023-04-08T00:35:47.422Z,90.26
2023-04-08T00:35:57.954Z,90.47
2023-04-08T00:36:08.420Z,90.58
2023-04-08T00:36:18.937Z,90.69
2023-04-08T00:36:29.444Z,90.69
2023-04-08T00:36:39.948Z,90.79
2023-04-08T00:36:50.437Z,90.79
2023-04-08T00:37:00.960Z,90.79
2023-04-08T00:37:11.466Z,90.79
2023-04-08T00:37:21.962Z,90.89
2023-04-08T00:37:32.491Z,90.89
2023-04-08T00:37:42.961Z,90.89
2023-04-08T00:37:53.484Z,90.89
2023-04-08T00:38:03.985Z,90.89
2023-04-08T00:38:14.477Z,90.75
2023-04-08T00:38:24.988Z,90.75
2023-04-08T00:38:35.488Z,90.75
2023-04-08T00:38:45.989Z,90.64
2023-04-08T00:38:56.508Z,90.54
2023-04-08T00:39:07.013Z,90.44
2023-04-08T00:39:17.512Z,90.44
2023-04-08T00:39:28.012Z,90.33
2023-04-08T00:39:38.515Z,90.23
2023-04-08T00:39:49.014Z,90.12
2023-04-08T00:39:59.535Z,90.12
2023-04-08T00:40:10.039Z,90.02
2023-04-08T00:40:20.549Z,90.02
2023-04-08T00:40:31.040Z,90.12
2023-04-08T00:40:41.538Z,90.23
2023-04-08T00:40:52.045Z,90.23
2023-04-08T00:41:02.551Z,90.23
2023-04-08T00:41:13.078Z,90.12
2023-04-08T00:41:23.573Z,90.12
2023-04-08T00:41:34.064Z,90.12
2023-04-08T00:41:44.583Z,90.02
2023-04-08T00:41:55.102Z,90.02
2023-04-08T00:42:05.587Z,90.02
2023-04-08T00:42:16.098Z,90.12
2023-04-08T00:42:26.592Z,90.12
2023-04-08T00:42:37.186Z,90.23
2023-04-08T00:42:47.604Z,90.26
2023-04-08T00:42:58.116Z,90.26
2023-04-08T00:43:08.630Z,90.37
2023-04-08T00:43:19.142Z,90.37
2023-04-08T00:43:29.627Z,90.47
2023-04-08T00:43:40.138Z,90.47
2023-04-08T00:43:50.650Z,90.47
2023-04-08T00:44:01.143Z,90.47
2023-04-08T00:44:11.648Z,90.47
2023-04-08T00:44:22.205Z,90.47
2023-04-08T00:44:32.670Z,90.47
2023-04-08T00:44:43.190Z,90.47
2023-04-08T00:44:53.683Z,90.47
2023-04-08T00:45:04.185Z,90.47
2023-04-08T00:45:14.686Z,90.47
2023-04-08T00:45:25.193Z,90.47
2023-04-08T00:45:35.710Z,90.47
2023-04-08T00:45:46.238Z,90.47
2023-04-08T00:45:56.775Z,90.47
2023-04-08T00:46:07.281Z,90.47
2023-04-08T00:46:17.748Z,90.47
2023-04-08T00:46:28.289Z,90.47
2023-04-08T00:46:38.756Z,90.47
2023-04-08T00:46:49.220Z,90.47
2023-04-08T00:46:59.738Z,90.37
2023-04-08T00:47:10.242Z,90.37
2023-04-08T00:47:20.798Z,90.37
2023-04-08T00:47:31.297Z,90.37
2023-04-08T00:47:41.817Z,90.37
2023-04-08T00:47:52.335Z,90.47
2023-04-08T00:48:02.820Z,90.37
2023-04-08T00:48:13.261Z,90.37
2023-04-08T00:48:23.785Z,90.47
2023-04-08T00:48:34.295Z,90.37
2023-04-08T00:48:44.784Z,90.47
2023-04-08T00:48:55.325Z,90.47
2023-04-08T00:49:05.795Z,90.58
2023-04-08T00:49:16.295Z,90.69
2023-04-08T00:49:26.802Z,90.79
2023-04-08T00:49:37.323Z,90.89
2023-04-08T00:49:47.843Z,90.89
2023-04-08T00:49:58.322Z,90.95
2023-04-08T00:50:08.825Z,90.95
2023-04-08T00:50:19.340Z,91.00
2023-04-08T00:50:29.848Z,90.95
2023-04-08T00:50:40.404Z,90.95
2023-04-08T00:50:50.854Z,91.06
2023-04-08T00:51:01.414Z,91.06
2023-04-08T00:51:11.858Z,91.06
2023-04-08T00:51:22.376Z,91.06
2023-04-08T00:51:32.879Z,91.06
2023-04-08T00:51:43.385Z,90.95
2023-04-08T00:51:53.908Z,90.95
2023-04-08T00:52:04.396Z,91.06
2023-04-08T00:52:14.904Z,91.16
2023-04-08T00:52:25.443Z,91.16
2023-04-08T00:52:35.915Z,91.27
2023-04-08T00:52:46.418Z,91.27
2023-04-08T00:52:56.922Z,91.27
2023-04-08T00:53:07.438Z,91.16
2023-04-08T00:53:17.938Z,91.12
2023-04-08T00:53:28.448Z,91.02
2023-04-08T00:53:38.945Z,91.02
2023-04-08T00:53:49.955Z,90.91
2023-04-08T00:54:00.488Z,90.91
2023-04-08T00:54:10.961Z,90.91
2023-04-08T00:54:21.462Z,90.81
2023-04-08T00:54:31.991Z,90.81
2023-04-08T00:54:42.470Z,90.81
2023-04-08T00:54:52.974Z,90.70
2023-04-08T00:55:03.478Z,90.70
2023-04-08T00:55:13.988Z,90.70
2023-04-08T00:55:24.489Z,90.60
2023-04-08T00:55:34.994Z,90.39
2023-04-08T00:55:45.516Z,90.29
2023-04-08T00:55:56.015Z,90.08
2023-04-08T00:56:06.532Z,89.67
2023-04-08T00:56:17.012Z,89.46
2023-04-08T00:56:27.516Z,89.25
2023-04-08T00:56:38.045Z,89.15
2023-04-08T00:56:48.530Z,89.04
2023-04-08T00:56:59.049Z,89.04
2023-04-08T00:57:09.563Z,89.00
2023-04-08T00:57:20.081Z,89.00
2023-04-08T00:57:30.567Z,89.00
2023-04-08T00:57:41.081Z,88.90
2023-04-08T00:57:51.594Z,88.90
2023-04-08T00:58:02.083Z,88.79
2023-04-08T00:58:12.595Z,88.69
2023-04-08T00:58:23.098Z,88.79
2023-04-08T00:58:33.628Z,88.90
2023-04-08T00:58:44.116Z,89.00
2023-04-08T00:58:54.612Z,89.21
2023-04-08T00:59:05.123Z,89.31
2023-04-08T00:59:15.642Z,89.42
2023-04-08T00:59:26.130Z,89.42
2023-04-08T00:59:36.644Z,89.48
2023-04-08T00:59:47.144Z,89.48
2023-04-08T00:59:57.643Z,89.62
2023-04-08T01:00:08.172Z,89.58
2023-04-08T01:00:18.649Z,89.48
2023-04-08T01:00:29.183Z,89.48
2023-04-08T01:00:39.663Z,89.42
2023-04-08T01:00:50.182Z,89.37
2023-04-08T01:01:00.685Z,89.42
2023-04-08T01:01:11.306Z,89.42
2023-04-08T01:01:21.734Z,89.48
2023-04-08T01:01:32.254Z,89.58
2023-04-08T01:01:42.842Z,89.62
2023-04-08T01:01:53.364Z,89.73
2023-04-08T01:02:03.784Z,89.69
2023-04-08T01:02:14.338Z,89.69
2023-04-08T01:02:24.821Z,89.69
2023-04-08T01:02:35.422Z,89.69
2023-04-08T01:02:45.902Z,89.69
2023-04-08T01:02:56.358Z,89.58
2023-04-08T01:03:06.856Z,89.58
2023-04-08T01:03:17.496Z,89.58
2023-04-08T01:03:27.915Z,89.69
2023-04-08T01:03:38.318Z,89.69
2023-04-08T01:03:48.866Z,89.69
2023-04-08T01:03:59.376Z,89.69
2023-04-08T01:04:09.877Z,89.69
2023-04-08T01:04:20.384Z,89.79
2023-04-08T01:04:30.869Z,89.89
2023-04-08T01:04:41.301Z,90.04
2023-04-08T01:04:51.825Z,90.10
2023-04-08T01:05:02.310Z,90.25
2023-04-08T01:05:12.813Z,90.35
2023-04-08T01:05:23.355Z,90.45
2023-04-08T01:05:33.822Z,90.56
2023-04-08T01:05:44.330Z,90.66
2023-04-08T01:05:54.851Z,90.87
2023-04-08T01:06:05.361Z,91.08
2023-04-08T01:06:15.862Z,91.18
2023-04-08T01:06:26.372Z,91.28
2023-04-08T01:06:36.854Z,91.39
2023-04-08T01:06:47.474Z,91.49
2023-04-08T01:06:57.889Z,91.49
2023-04-08T01:07:08.397Z,91.60
2023-04-08T01:07:18.900Z,91.60
2023-04-08T01:07:29.422Z,91.70
2023-04-08T01:07:39.903Z,91.70
2023-04-08T01:07:50.424Z,91.70
2023-04-08T01:08:00.915Z,91.80
2023-04-08T01:08:11.425Z,91.80
2023-04-08T01:08:21.925Z,91.91
2023-04-08T01:08:32.451Z,91.91
2023-04-08T01:08:42.955Z,92.01
2023-04-08T01:08:53.452Z,92.01
2023-04-08T01:09:03.960Z,92.01
2023-04-08T01:09:14.464Z,92.11
2023-04-08T01:09:24.965Z,92.11
2023-04-08T01:09:35.512Z,92.22
2023-04-08T01:09:45.983Z,92.22
2023-04-08T01:09:56.493Z,92.22
2023-04-08T01:10:06.990Z,92.32
2023-04-08T01:10:17.492Z,92.28
2023-04-08T01:10:28.003Z,92.22
2023-04-08T01:10:38.509Z,92.18
2023-04-08T01:10:49.010Z,92.18
2023-04-08T01:10:59.517Z,92.28
2023-04-08T01:11:10.024Z,92.28
2023-04-08T01:11:20.525Z,92.28
2023-04-08T01:11:31.028Z,92.38
2023-04-08T01:11:41.540Z,92.38
2023-04-08T01:11:52.048Z,92.38
2023-04-08T01:12:02.542Z,92.28
2023-04-08T01:12:13.053Z,92.28
2023-04-08T01:12:23.551Z,92.28
2023-04-08T01:12:34.077Z,92.28
2023-04-08T01:12:44.557Z,92.28
2023-04-08T01:12:55.092Z,92.32
2023-04-08T01:13:05.592Z,92.28
2023-04-08T01:13:16.082Z,92.28
2023-04-08T01:13:26.583Z,92.43
2023-04-08T01:13:37.098Z,92.43
2023-04-08T01:13:47.599Z,92.38
2023-04-08T01:13:58.112Z,92.38
2023-04-08T01:14:08.608Z,92.49
2023-04-08T01:14:19.115Z,92.49
2023-04-08T01:14:29.624Z,92.49
2023-04-08T01:14:40.133Z,92.49
2023-04-08T01:14:50.633Z,92.49
2023-04-08T01:15:01.148Z,92.59
2023-04-08T01:15:11.676Z,92.59
2023-04-08T01:15:22.168Z,92.59
2023-04-08T01:15:32.681Z,92.69
2023-04-08T01:15:43.212Z,92.69
2023-04-08T01:15:53.733Z,92.80
2023-04-08T01:16:04.238Z,92.90
2023-04-08T01:16:14.800Z,93.01
2023-04-08T01:16:25.307Z,93.12
2023-04-08T01:16:35.714Z,93.12
2023-04-08T01:16:46.225Z,93.22
2023-04-08T01:16:56.717Z,93.32
2023-04-08T01:17:07.227Z,93.43
2023-04-08T01:17:17.739Z,93.43
2023-04-08T01:17:28.255Z,93.57
2023-04-08T01:17:38.790Z,93.53
2023-04-08T01:17:49.280Z,93.57
2023-04-08T01:17:59.866Z,93.53
2023-04-08T01:18:10.268Z,93.57
2023-04-08T01:18:20.781Z,93.53
2023-04-08T01:18:31.291Z,93.57
2023-04-08T01:18:41.797Z,93.53
2023-04-08T01:18:52.352Z,93.63
2023-04-08T01:19:02.813Z,93.63
2023-04-08T01:19:13.311Z,93.63
2023-04-08T01:19:23.820Z,93.63
2023-04-08T01:19:34.334Z,93.53
2023-04-08T01:19:44.871Z,93.53
2023-04-08T01:19:55.363Z,93.53
2023-04-08T01:20:05.840Z,93.43
2023-04-08T01:20:16.346Z,93.47
2023-04-08T01:20:26.862Z,93.32
2023-04-08T01:20:37.366Z,93.32
2023-04-08T01:20:47.866Z,93.37
2023-04-08T01:20:58.377Z,93.32
2023-04-08T01:21:08.893Z,93.32
2023-04-08T01:21:19.410Z,93.32
2023-04-08T01:21:29.890Z,93.32
2023-04-08T01:21:40.385Z,93.32
2023-04-08T01:21:50.913Z,93.47
2023-04-08T01:22:01.393Z,93.43
2023-04-08T01:22:11.903Z,93.43
2023-04-08T01:22:22.421Z,93.43
2023-04-08T01:22:32.924Z,93.43
2023-04-08T01:22:43.431Z,93.43
2023-04-08T01:22:53.952Z,93.43
2023-04-08T01:23:04.445Z,93.43
2023-04-08T01:23:14.955Z,93.43
2023-04-08T01:23:25.477Z,93.32
2023-04-08T01:23:35.967Z,93.32
2023-04-08T01:23:46.477Z,93.32
2023-04-08T01:23:56.974Z,93.32
2023-04-08T01:24:07.498Z,93.22
2023-04-08T01:24:17.993Z,93.22
2023-04-08T01:24:28.497Z,93.22
2023-04-08T01:24:39.006Z,93.22
2023-04-08T01:24:49.524Z,93.22
2023-04-08T01:25:00.028Z,93.22
2023-04-08T01:25:10.537Z,93.32
2023-04-08T01:25:21.030Z,93.32
2023-04-08T01:25:31.545Z,93.32
2023-04-08T01:25:42.056Z,93.22
2023-04-08T01:25:52.564Z,93.22
2023-04-08T01:26:03.065Z,93.12
2023-04-08T01:26:13.567Z,93.01
2023-04-08T01:26:24.102Z,93.01
2023-04-08T01:26:34.604Z,93.01
2023-04-08T01:26:45.092Z,93.01
2023-04-08T01:26:55.604Z,92.97
2023-04-08T01:27:06.107Z,93.01
2023-04-08T01:27:16.609Z,92.97
2023-04-08T01:27:27.114Z,92.97
2023-04-08T01:27:37.618Z,93.12
2023-04-08T01:27:48.130Z,93.07
2023-04-08T01:27:58.664Z,93.07
2023-04-08T01:28:09.142Z,93.07
2023-04-08T01:28:19.660Z,93.07
2023-04-08T01:28:30.243Z,93.07
2023-04-08T01:28:40.659Z,92.97
2023-04-08T01:28:51.299Z,92.97
2023-04-08T01:29:01.686Z,92.86
2023-04-08T01:29:12.185Z,92.86
2023-04-08T01:29:22.696Z,92.76
2023-04-08T01:29:33.195Z,92.76
2023-04-08T01:29:43.695Z,92.76
2023-04-08T01:29:54.203Z,92.76
2023-04-08T01:30:04.712Z,92.66
2023-04-08T01:30:15.214Z,92.66
2023-04-08T01:30:25.739Z,92.66
2023-04-08T01:30:36.231Z,92.66
2023-04-08T01:30:46.748Z,92.66
2023-04-08T01:30:57.274Z,92.66
2023-04-08T01:31:07.834Z,92.66
2023-04-08T01:31:18.293Z,92.66
2023-04-08T01:31:28.835Z,92.66
2023-04-08T01:31:39.341Z,92.66
2023-04-08T01:31:49.763Z,92.66
2023-04-08T01:32:00.273Z,92.66
2023-04-08T01:32:10.786Z,92.66
2023-04-08T01:32:21.308Z,92.66
2023-04-08T01:32:31.829Z,92.76
2023-04-08T01:32:42.355Z,92.76
2023-04-08T01:32:52.835Z,92.76
2023-04-08T01:33:03.341Z,92.76
2023-04-08T01:33:13.815Z,92.86
2023-04-08T01:33:24.331Z,92.86
2023-04-08T01:33:34.835Z,92.86
2023-04-08T01:33:45.343Z,92.86
2023-04-08T01:33:55.849Z,92.76
2023-04-08T01:34:06.352Z,92.76
2023-04-08T01:34:16.850Z,92.76
2023-04-08T01:34:27.365Z,92.76
2023-04-08T01:34:37.879Z,92.76
2023-04-08T01:34:48.375Z,92.76
2023-04-08T01:34:58.923Z,92.86
2023-04-08T01:35:09.466Z,92.86
2023-04-08T01:35:19.934Z,92.86
2023-04-08T01:35:30.451Z,92.86
2023-04-08T01:35:40.976Z,92.86
2023-04-08T01:35:51.458Z,92.86
2023-04-08T01:36:01.986Z,92.76
2023-04-08T01:36:12.434Z,92.72
2023-04-08T01:36:22.943Z,92.82
2023-04-08T01:36:33.435Z,92.72
2023-04-08T01:36:43.937Z,92.72
2023-04-08T01:36:54.462Z,92.72
2023-04-08T01:37:04.972Z,92.72
2023-04-08T01:37:15.480Z,92.61
2023-04-08T01:37:25.973Z,92.61
2023-04-08T01:37:36.492Z,92.51
2023-04-08T01:37:46.984Z,92.51
2023-04-08T01:37:57.512Z,92.51
2023-04-08T01:38:08.007Z,92.51
2023-04-08T01:38:18.526Z,92.51
2023-04-08T01:38:29.033Z,92.61
2023-04-08T01:38:39.533Z,92.61
2023-04-08T01:38:50.202Z,92.61
2023-04-08T01:39:00.542Z,92.61
2023-04-08T01:39:11.040Z,92.61
2023-04-08T01:39:21.574Z,92.61
2023-04-08T01:39:32.064Z,92.51
2023-04-08T01:39:42.559Z,92.51
2023-04-08T01:39:53.074Z,92.51
2023-04-08T01:40:03.615Z,92.51
2023-04-08T01:40:14.094Z,92.51
2023-04-08T01:40:24.590Z,92.61
2023-04-08T01:40:35.193Z,92.61
2023-04-08T01:40:45.603Z,92.72
2023-04-08T01:40:56.158Z,92.61
2023-04-08T01:41:06.610Z,92.51
2023-04-08T01:41:17.119Z,92.41
2023-04-08T01:41:27.618Z,92.41
2023-04-08T01:41:38.128Z,92.30
2023-04-08T01:41:48.636Z,92.20
2023-04-08T01:41:59.142Z,92.30
2023-04-08T01:42:09.642Z,92.30
2023-04-08T01:42:20.153Z,92.30
2023-04-08T01:42:30.656Z,92.30
2023-04-08T01:42:41.168Z,92.30
2023-04-08T01:42:51.678Z,92.30
2023-04-08T01:43:02.188Z,92.41
2023-04-08T01:43:12.679Z,92.41
2023-04-08T01:43:23.186Z,92.30
2023-04-08T01:43:33.694Z,92.30
2023-04-08T01:43:44.200Z,92.30
2023-04-08T01:43:54.714Z,92.30
2023-04-08T01:44:05.208Z,92.30
2023-04-08T01:44:15.724Z,92.20
2023-04-08T01:44:26.227Z,92.16
2023-04-08T01:44:36.730Z,92.20
2023-04-08T01:44:47.241Z,92.10
2023-04-08T01:44:57.736Z,91.99
2023-04-08T01:45:08.256Z,91.99
2023-04-08T01:45:18.759Z,91.85
2023-04-08T01:45:29.311Z,91.89
2023-04-08T01:45:39.766Z,91.85
2023-04-08T01:45:50.301Z,91.85
2023-04-08T01:46:00.776Z,91.68
2023-04-08T01:46:11.300Z,91.43
2023-04-08T01:46:21.820Z,91.22
2023-04-08T01:46:32.333Z,91.06
2023-04-08T01:46:42.830Z,90.85
2023-04-08T01:46:53.341Z,90.70
2023-04-08T01:47:03.933Z,90.60
2023-04-08T01:47:14.343Z,90.60
2023-04-08T01:47:24.890Z,90.60
2023-04-08T01:47:35.382Z,90.60
2023-04-08T01:47:45.918Z,90.60
2023-04-08T01:47:56.367Z,90.50
2023-04-08T01:48:06.883Z,90.39
2023-04-08T01:48:17.376Z,90.19
2023-04-08T01:48:27.907Z,90.08
2023-04-08T01:48:38.391Z,89.98
2023-04-08T01:48:49.229Z,89.87
2023-04-08T01:48:59.403Z,89.87
2023-04-08T01:49:09.908Z,89.87
2023-04-08T01:49:20.414Z,89.87
2023-04-08T01:49:30.927Z,89.87
2023-04-08T01:49:41.436Z,89.87
2023-04-08T01:49:51.959Z,89.87
2023-04-08T01:50:02.462Z,89.67
2023-04-08T01:50:12.985Z,89.56
2023-04-08T01:50:23.476Z,89.36
2023-04-08T01:50:33.972Z,89.15
2023-04-08T01:50:44.478Z,89.04
2023-04-08T01:50:54.993Z,89.04
2023-04-08T01:51:05.490Z,89.04
2023-04-08T01:51:15.980Z,89.04
2023-04-08T01:51:26.492Z,89.04
2023-04-08T01:51:37.751Z,89.15
2023-04-08T01:51:47.522Z,89.15
2023-04-08T01:51:58.008Z,89.25
2023-04-08T01:52:08.527Z,89.36
2023-04-08T01:52:19.032Z,89.46
2023-04-08T01:52:29.524Z,89.56
2023-04-08T01:52:40.048Z,89.67
2023-04-08T01:52:50.536Z,89.77
2023-04-08T01:53:01.073Z,89.98
2023-04-08T01:53:11.560Z,90.08
2023-04-08T01:53:22.074Z,90.08
2023-04-08T01:53:32.615Z,89.98
2023-04-08T01:53:43.076Z,89.67
2023-04-08T01:53:53.608Z,89.46
2023-04-08T01:54:04.105Z,89.25
2023-04-08T01:54:14.643Z,89.15
2023-04-08T01:54:25.113Z,89.15
2023-04-08T01:54:35.614Z,89.04
2023-04-08T01:54:46.124Z,89.04
2023-04-08T01:54:56.640Z,88.94
2023-04-08T01:55:07.183Z,88.84
2023-04-08T01:55:17.649Z,88.73
2023-04-08T01:55:28.183Z,88.63
2023-04-08T01:55:38.656Z,88.63
2023-04-08T01:55:49.167Z,88.63
2023-04-08T01:55:59.665Z,88.63
2023-04-08T01:56:10.179Z,88.73
2023-04-08T01:56:20.688Z,88.84
2023-04-08T01:56:31.194Z,88.94
2023-04-08T01:56:41.735Z,89.15
2023-04-08T01:56:52.202Z,89.36
2023-04-08T01:57:02.710Z,89.46
2023-04-08T01:57:13.215Z,89.67
2023-04-08T01:57:23.717Z,89.67
2023-04-08T01:57:34.233Z,89.73
2023-04-08T01:57:44.763Z,89.77
2023-04-08T01:57:55.243Z,89.73
2023-04-08T01:58:05.811Z,89.73
2023-04-08T01:58:16.279Z,89.83
2023-04-08T01:58:26.762Z,89.83
2023-04-08T01:58:37.291Z,89.94
2023-04-08T01:58:47.907Z,89.94
2023-04-08T01:58:58.333Z,90.04
2023-04-08T01:59:08.793Z,90.04
2023-04-08T01:59:19.304Z,90.14
2023-04-08T01:59:29.806Z,90.35
2023-04-08T01:59:40.323Z,90.45
2023-04-08T01:59:50.828Z,90.70
2023-04-08T02:00:01.337Z,90.77
2023-04-08T02:00:11.846Z,90.91
2023-04-08T02:00:22.353Z,90.91
2023-04-08T02:00:32.868Z,90.97
2023-04-08T02:00:43.372Z,91.02
2023-04-08T02:00:53.877Z,91.02
2023-04-08T02:01:04.380Z,91.12
2023-04-08T02:01:14.870Z,91.22
2023-04-08T02:01:25.442Z,91.22
2023-04-08T02:01:35.953Z,91.33
2023-04-08T02:01:46.513Z,91.33
2023-04-08T02:01:57.086Z,91.33
2023-04-08T02:02:07.538Z,91.33
2023-04-08T02:02:18.002Z,91.33
2023-04-08T02:02:28.674Z,91.33
2023-04-08T02:02:39.045Z,91.33
2023-04-08T02:02:49.604Z,91.33
2023-04-08T02:03:00.236Z,91.33
2023-04-08T02:03:10.690Z,91.33
2023-04-08T02:03:21.396Z,91.33
2023-04-08T02:03:31.835Z,91.33
2023-04-08T02:03:42.024Z,91.33
2023-04-08T02:03:52.645Z,91.33
2023-04-08T02:04:03.207Z,91.33
2023-04-08T02:04:13.659Z,91.22
2023-04-08T02:04:24.153Z,91.33
2023-04-08T02:04:34.604Z,91.33
2023-04-08T02:04:45.119Z,91.33
2023-04-08T02:04:55.528Z,91.33
2023-04-08T02:05:06.068Z,91.43
2023-04-08T02:05:16.534Z,91.43
2023-04-08T02:05:27.049Z,91.43
2023-04-08T02:05:37.555Z,91.43
2023-04-08T02:05:48.072Z,91.53
2023-04-08T02:05:58.589Z,91.53
2023-04-08T02:06:09.066Z,91.53
2023-04-08T02:06:19.585Z,91.64
2023-04-08T02:06:30.097Z,91.53
2023-04-08T02:06:40.591Z,91.53
2023-04-08T02:06:51.092Z,91.53
2023-04-08T02:07:01.611Z,91.53
2023-04-08T02:07:12.107Z,91.53
2023-04-08T02:07:22.611Z,91.53
2023-04-08T02:07:33.120Z,91.53
2023-04-08T02:07:43.641Z,91.64
2023-04-08T02:07:54.136Z,91.64
2023-04-08T02:08:04.643Z,91.64
2023-04-08T02:08:15.145Z,91.64
2023-04-08T02:08:25.660Z,91.64
2023-04-08T02:08:36.170Z,91.74
2023-04-08T02:08:46.669Z,91.74
2023-04-08T02:08:57.170Z,91.74
2023-04-08T02:09:07.693Z,91.74
2023-04-08T02:09:18.195Z,91.74
2023-04-08T02:09:28.701Z,91.85
2023-04-08T02:09:39.222Z,91.85
2023-04-08T02:09:49.713Z,91.85
2023-04-08T02:10:00.246Z,91.95
2023-04-08T02:10:10.725Z,91.95
2023-04-08T02:10:21.234Z,91.95
2023-04-08T02:10:31.742Z,91.95
2023-04-08T02:10:42.250Z,91.95
2023-04-08T02:10:52.755Z,92.05
2023-04-08T02:11:03.252Z,92.05
2023-04-08T02:11:13.775Z,92.05
2023-04-08T02:11:24.309Z,92.20
2023-04-08T02:11:34.774Z,92.20
2023-04-08T02:11:45.281Z,92.20
2023-04-08T02:11:55.801Z,92.20
2023-04-08T02:12:06.299Z,92.20
2023-04-08T02:12:16.805Z,92.16
2023-04-08T02:12:27.303Z,92.16
2023-04-08T02:12:37.815Z,92.20
2023-04-08T02:12:48.359Z,92.26
2023-04-08T02:12:58.833Z,92.26
2023-04-08T02:13:09.343Z,92.26
2023-04-08T02:13:19.846Z,92.26
2023-04-08T02:13:30.369Z,92.30
2023-04-08T02:13:40.852Z,92.26
2023-04-08T02:13:51.364Z,92.30
2023-04-08T02:14:01.878Z,92.16
2023-04-08T02:14:12.393Z,92.05
2023-04-08T02:14:22.886Z,92.05
2023-04-08T02:14:33.398Z,91.95
2023-04-08T02:14:43.932Z,91.95
2023-04-08T02:14:54.418Z,91.95
2023-04-08T02:15:04.924Z,91.95
2023-04-08T02:15:15.417Z,91.95
2023-04-08T02:15:25.936Z,91.95
2023-04-08T02:15:36.444Z,91.95
2023-04-08T02:15:46.951Z,91.95
2023-04-08T02:15:57.496Z,91.95
2023-04-08T02:16:08.010Z,91.95
2023-04-08T02:16:18.486Z,91.85
2023-04-08T02:16:29.086Z,91.85
2023-04-08T02:16:39.753Z,91.74
2023-04-08T02:16:49.998Z,91.74
2023-04-08T02:17:00.492Z,91.74
2023-04-08T02:17:11.024Z,91.64
2023-04-08T02:17:21.502Z,91.64
2023-04-08T02:17:33.121Z,91.64
2023-04-08T02:17:42.521Z,91.64
2023-04-08T02:17:53.099Z,91.64
2023-04-08T02:18:03.559Z,91.64
2023-04-08T02:18:14.078Z,91.43
2023-04-08T02:18:24.544Z,91.33
2023-04-08T02:18:35.047Z,91.02
2023-04-08T02:18:45.549Z,90.81
2023-04-08T02:18:56.060Z,90.60
2023-04-08T02:19:06.593Z,90.50
2023-04-08T02:19:17.105Z,90.29
2023-04-08T02:19:27.586Z,90.19
2023-04-08T02:19:38.108Z,90.08
2023-04-08T02:19:48.637Z,89.98
2023-04-08T02:19:59.108Z,89.98
2023-04-08T02:20:09.647Z,89.87
2023-04-08T02:20:20.115Z,89.77
2023-04-08T02:20:30.627Z,89.67
2023-04-08T02:20:41.154Z,89.67
2023-04-08T02:20:51.637Z,89.67
2023-04-08T02:21:02.156Z,89.77
2023-04-08T02:21:12.686Z,89.77
2023-04-08T02:21:23.171Z,89.87
2023-04-08T02:21:33.662Z,89.87
2023-04-08T02:21:44.176Z,89.87
2023-04-08T02:21:54.678Z,89.77
2023-04-08T02:22:05.188Z,89.77
2023-04-08T02:22:15.693Z,89.67
2023-04-08T02:22:26.212Z,89.56
2023-04-08T02:22:36.730Z,89.46
2023-04-08T02:22:47.219Z,89.46
2023-04-08T02:22:57.780Z,89.36
2023-04-08T02:23:08.249Z,89.36
2023-04-08T02:23:18.742Z,89.25
2023-04-08T02:23:29.262Z,89.21
2023-04-08T02:23:39.781Z,89.25
2023-04-08T02:23:50.286Z,89.21
2023-04-08T02:24:02.631Z,89.11
2023-04-08T02:24:11.294Z,88.90
2023-04-08T02:24:21.793Z,88.59
2023-04-08T02:24:32.310Z,88.48
2023-04-08T02:24:42.809Z,88.39
2023-04-08T02:24:53.322Z,88.39
2023-04-08T02:25:03.815Z,88.39
2023-04-08T02:25:14.380Z,88.39
2023-04-08T02:25:24.878Z,88.39
2023-04-08T02:25:35.360Z,88.39
2023-04-08T02:25:45.865Z,88.28
2023-04-08T02:25:56.361Z,88.18
2023-04-08T02:26:06.864Z,88.07
2023-04-08T02:26:17.370Z,88.07
2023-04-08T02:26:27.873Z,87.97
2023-04-08T02:26:38.395Z,87.97
2023-04-08T02:26:48.891Z,87.97
2023-04-08T02:26:59.398Z,87.97
2023-04-08T02:27:09.902Z,87.97
2023-04-08T02:27:20.427Z,87.97
2023-04-08T02:27:30.948Z,87.97
2023-04-08T02:27:41.435Z,87.97
2023-04-08T02:27:51.976Z,88.07
2023-04-08T02:28:02.443Z,88.07
2023-04-08T02:28:12.943Z,88.18
2023-04-08T02:28:23.461Z,88.28
2023-04-08T02:28:33.963Z,88.28
2023-04-08T02:28:44.474Z,88.39
2023-04-08T02:28:54.980Z,88.59
2023-04-08T02:29:05.503Z,88.90
2023-04-08T02:29:15.998Z,89.11
2023-04-08T02:29:26.517Z,89.31
2023-04-08T02:29:37.016Z,89.31
2023-04-08T02:29:47.524Z,89.42
2023-04-08T02:29:58.035Z,89.31
2023-04-08T02:30:08.562Z,89.42
2023-04-08T02:30:19.073Z,89.52
2023-04-08T02:30:29.551Z,89.62
2023-04-08T02:30:40.056Z,89.83
2023-04-08T02:30:50.589Z,90.14
2023-04-08T02:31:01.081Z,90.41
2023-04-08T02:31:11.584Z,90.72
2023-04-08T02:31:22.109Z,91.03
2023-04-08T02:31:32.607Z,91.24
2023-04-08T02:31:43.161Z,91.35
2023-04-08T02:31:53.710Z,91.55
2023-04-08T02:32:04.123Z,91.55
2023-04-08T02:32:14.696Z,91.66
2023-04-08T02:32:25.180Z,91.66
2023-04-08T02:32:35.730Z,91.55
2023-04-08T02:32:46.193Z,91.55
2023-04-08T02:32:56.736Z,91.55
2023-04-08T02:33:07.227Z,91.45
2023-04-08T02:33:17.690Z,91.45
2023-04-08T02:33:28.194Z,91.45
2023-04-08T02:33:38.710Z,91.45
2023-04-08T02:33:49.208Z,91.45
2023-04-08T02:33:59.722Z,91.55
2023-04-08T02:34:10.230Z,91.55
2023-04-08T02:34:20.742Z,91.66
2023-04-08T02:34:31.256Z,91.76
2023-04-08T02:34:41.767Z,91.86
2023-04-08T02:34:52.262Z,91.86
2023-04-08T02:35:02.780Z,91.86
2023-04-08T02:35:13.300Z,91.86
2023-04-08T02:35:23.820Z,91.86
2023-04-08T02:35:34.346Z,91.86
2023-04-08T02:35:44.864Z,91.76
2023-04-08T02:35:55.371Z,91.76
2023-04-08T02:36:05.863Z,91.76
2023-04-08T02:36:16.340Z,91.66
2023-04-08T02:36:26.838Z,91.66
2023-04-08T02:36:37.337Z,91.55
2023-04-08T02:36:47.852Z,91.45
2023-04-08T02:36:58.350Z,91.45
2023-04-08T02:37:08.870Z,91.35
2023-04-08T02:37:19.372Z,91.03
2023-04-08T02:37:29.872Z,90.52
2023-04-08T02:37:40.402Z,90.10
2023-04-08T02:37:50.893Z,89.69
2023-04-08T02:38:01.394Z,89.48
2023-04-08T02:38:11.918Z,89.38
2023-04-08T02:38:22.413Z,89.28
2023-04-08T02:38:32.920Z,89.17
2023-04-08T02:38:43.430Z,89.17
2023-04-08T02:38:53.941Z,89.07
2023-04-08T02:39:04.448Z,89.07
2023-04-08T02:39:14.951Z,89.07
2023-04-08T02:39:25.469Z,89.07
2023-04-08T02:39:35.976Z,89.17
2023-04-08T02:39:46.476Z,89.38
2023-04-08T02:39:56.995Z,89.58
2023-04-08T02:40:07.492Z,89.69
2023-04-08T02:40:17.998Z,89.89
2023-04-08T02:40:28.512Z,90.00
2023-04-08T02:40:39.013Z,90.10
2023-04-08T02:40:49.526Z,90.20
2023-04-08T02:41:00.040Z,90.20
2023-04-08T02:41:10.539Z,90.20
2023-04-08T02:41:21.070Z,90.10
2023-04-08T02:41:31.553Z,90.00
2023-04-08T02:41:42.069Z,90.00
2023-04-08T02:41:52.560Z,89.89
2023-04-08T02:42:03.069Z,89.79
2023-04-08T02:42:13.577Z,89.69
2023-04-08T02:42:24.083Z,89.58
2023-04-08T02:42:34.598Z,89.48
2023-04-08T02:42:45.117Z,89.38
2023-04-08T02:42:55.607Z,89.38
2023-04-08T02:43:06.120Z,89.38
2023-04-08T02:43:16.646Z,89.38
2023-04-08T02:43:27.126Z,89.48
2023-04-08T02:43:37.634Z,89.48
2023-04-08T02:43:48.227Z,89.48
2023-04-08T02:43:58.649Z,89.58
2023-04-08T02:44:09.153Z,89.69
2023-04-08T02:44:19.663Z,89.89
2023-04-08T02:44:30.167Z,90.10
2023-04-08T02:44:40.677Z,90.31
2023-04-08T02:44:51.203Z,90.52
2023-04-08T02:45:01.725Z,90.62
2023-04-08T02:45:12.199Z,90.83
2023-04-08T02:45:22.709Z,90.93
2023-04-08T02:45:33.317Z,90.93
2023-04-08T02:45:43.771Z,90.93
2023-04-08T02:45:54.278Z,91.03
2023-04-08T02:46:04.781Z,91.03
2023-04-08T02:46:15.273Z,91.03
2023-04-08T02:46:25.746Z,91.03
2023-04-08T02:46:36.255Z,91.03
2023-04-08T02:46:46.764Z,90.93
2023-04-08T02:46:57.278Z,90.93
2023-04-08T02:47:07.777Z,90.83
2023-04-08T02:47:18.283Z,90.72
2023-04-08T02:47:28.816Z,90.62
2023-04-08T02:47:39.334Z,90.52
2023-04-08T02:47:49.892Z,90.31
2023-04-08T02:48:00.409Z,90.20
2023-04-08T02:48:10.849Z,90.20
2023-04-08T02:48:21.332Z,90.10
2023-04-08T02:48:31.845Z,90.10
2023-04-08T02:48:42.349Z,90.10
2023-04-08T02:48:52.852Z,90.00
2023-04-08T02:49:03.367Z,90.00
2023-04-08T02:49:13.872Z,89.89
2023-04-08T02:49:24.384Z,89.89
2023-04-08T02:49:34.895Z,89.79
2023-04-08T02:49:45.387Z,89.79
2023-04-08T02:49:55.920Z,89.79